createdAt,value
2023-03-12T00:01:43.321Z,7.69
2023-03-12T00:03:45.300Z,7.68
2023-03-12T00:05:46.934Z,7.62
2023-03-12T00:07:48.958Z,7.68
2023-03-12T00:09:50.525Z,7.66
2023-03-12T00:11:52.138Z,7.64
2023-03-12T00:13:58.919Z,7.63
2023-03-12T00:16:04.766Z,7.61
2023-03-12T00:18:06.435Z,7.56
2023-03-12T00:20:09.950Z,7.50
2023-03-12T00:22:11.634Z,7.50
2023-03-12T00:24:15.751Z,7.51
2023-03-12T00:26:18.471Z,7.49
2023-03-12T00:28:20.035Z,7.47
2023-03-12T00:30:23.123Z,7.42
2023-03-12T00:32:24.938Z,7.41
2023-03-12T00:34:26.569Z,7.43
2023-03-12T00:36:31.131Z,7.41
2023-03-12T00:38:32.854Z,7.37
2023-03-12T00:40:34.525Z,7.36
2023-03-12T00:42:36.166Z,7.35
2023-03-12T00:44:37.861Z,7.41
2023-03-12T00:46:40.972Z,7.33
2023-03-12T00:48:42.781Z,7.28
2023-03-12T00:50:44.481Z,7.29
2023-03-12T00:52:46.051Z,7.24
2023-03-12T00:54:47.637Z,7.29
2023-03-12T00:56:49.892Z,7.28
2023-03-12T00:58:51.444Z,7.30
2023-03-12T01:00:53.239Z,7.33
2023-03-12T01:02:56.414Z,7.38
2023-03-12T01:04:57.968Z,7.30
2023-03-12T01:06:59.528Z,7.29
2023-03-12T01:09:01.493Z,7.34
2023-03-12T01:11:03.152Z,7.34
2023-03-12T01:13:04.731Z,7.37
2023-03-12T01:15:07.871Z,7.30
2023-03-12T01:17:09.846Z,7.35
2023-03-12T01:19:12.851Z,7.31
2023-03-12T01:21:14.652Z,7.32
2023-03-12T01:23:16.288Z,7.17
2023-03-12T01:25:17.948Z,7.14
2023-03-12T01:27:19.520Z,7.16
2023-03-12T01:29:21.145Z,7.25
2023-03-12T01:31:22.692Z,7.31
2023-03-12T01:33:24.284Z,7.36
2023-03-12T01:35:27.388Z,7.36
2023-03-12T01:37:29.504Z,7.45
2023-03-12T01:39:31.222Z,7.46
2023-03-12T01:41:33.948Z,7.47
2023-03-12T01:43:38.662Z,7.54
2023-03-12T01:46:02.264Z,7.49
2023-03-12T01:48:04.379Z,7.53
2023-03-12T01:50:06.438Z,7.43
2023-03-12T01:52:13.512Z,7.39
2023-03-12T01:54:18.573Z,7.34
2023-03-12T01:56:21.730Z,7.34
2023-03-12T01:58:23.529Z,7.31
2023-03-12T02:00:27.047Z,7.32
2023-03-12T02:02:29.151Z,7.25
2023-03-12T02:04:34.138Z,7.26
2023-03-12T02:06:42.375Z,7.28
2023-03-12T02:08:47.886Z,7.24
2023-03-12T02:10:49.622Z,7.26
2023-03-12T02:12:51.780Z,7.18
2023-03-12T02:14:53.574Z,7.20
2023-03-12T02:16:55.844Z,7.26
2023-03-12T02:19:01.404Z,7.24
2023-03-12T02:21:12.419Z,7.26
2023-03-12T02:23:21.394Z,7.31
2023-03-12T02:25:30.945Z,7.34
2023-03-12T02:27:36.161Z,7.33
2023-03-12T02:29:41.221Z,7.36
2023-03-12T02:31:45.877Z,7.38
2023-03-12T02:33:47.522Z,7.33
2023-03-12T02:35:49.271Z,7.37
2023-03-12T02:37:52.856Z,7.28
2023-03-12T02:40:00.147Z,7.36
2023-03-12T02:42:03.584Z,7.35
2023-03-12T02:44:09.829Z,7.27
2023-03-12T02:46:12.310Z,7.31
2023-03-12T02:48:14.094Z,7.28
2023-03-12T02:50:16.180Z,7.16
2023-03-12T02:52:17.768Z,7.13
2023-03-12T02:54:20.758Z,7.06
2023-03-12T02:56:23.905Z,7.04
2023-03-12T02:58:26.940Z,7.08
2023-03-12T03:00:28.542Z,7.09
2023-03-12T03:02:30.090Z,7.13
2023-03-12T03:04:32.092Z,7.11
2023-03-12T03:06:35.209Z,7.02
2023-03-12T03:08:36.831Z,7.00
2023-03-12T03:10:38.497Z,7.07
2023-03-12T03:12:40.084Z,7.08
2023-03-12T03:14:42.993Z,7.02
2023-03-12T03:16:44.628Z,6.98
2023-03-12T03:18:46.343Z,6.93
2023-03-12T03:20:55.453Z,6.89
2023-03-12T03:22:57.134Z,6.85
2023-03-12T03:24:58.696Z,6.85
2023-03-12T03:27:00.241Z,6.90
2023-03-12T03:29:01.863Z,6.81
2023-03-12T03:31:05.096Z,6.83
2023-03-12T03:33:06.656Z,6.87
2023-03-12T03:35:09.227Z,6.83
2023-03-12T03:37:10.910Z,6.85
2023-03-12T03:39:12.493Z,6.82
2023-03-12T03:41:14.845Z,6.78
2023-03-12T03:43:16.560Z,6.85
2023-03-12T03:45:18.380Z,6.85
2023-03-12T03:47:21.982Z,6.93
2023-03-12T03:49:23.983Z,6.95
2023-03-12T03:51:25.508Z,7.03
2023-03-12T03:53:27.131Z,7.04
2023-03-12T03:55:29.083Z,7.05
2023-03-12T03:57:30.894Z,7.12
2023-03-12T03:59:32.495Z,7.13
2023-03-12T04:01:34.118Z,7.15
2023-03-12T04:03:37.153Z,7.15
2023-03-12T04:05:38.796Z,7.15
2023-03-12T04:07:40.553Z,7.20
2023-03-12T04:09:42.512Z,7.19
2023-03-12T04:11:44.187Z,7.22
2023-03-12T04:13:46.623Z,7.18
2023-03-12T04:15:49.392Z,7.15
2023-03-12T04:17:51.142Z,7.17
2023-03-12T04:19:54.393Z,7.13
2023-03-12T04:21:55.969Z,7.21
2023-03-12T04:23:57.691Z,7.29
2023-03-12T04:25:59.552Z,7.28
2023-03-12T04:28:01.272Z,7.31
2023-03-12T04:30:03.548Z,7.31
2023-03-12T04:32:06.369Z,7.28
2023-03-12T04:34:08.059Z,7.28
2023-03-12T04:36:12.119Z,7.25
2023-03-12T04:38:13.766Z,7.25
2023-03-12T04:40:15.394Z,7.28
2023-03-12T04:42:17.102Z,7.27
2023-03-12T04:44:18.650Z,7.28
2023-03-12T04:46:20.222Z,7.26
2023-03-12T04:48:21.810Z,7.29
2023-03-12T04:50:23.430Z,7.31
2023-03-12T04:52:26.613Z,7.35
2023-03-12T04:54:28.172Z,7.34
2023-03-12T04:56:30.076Z,7.34
2023-03-12T04:58:31.654Z,7.33
2023-03-12T05:00:33.257Z,7.30
2023-03-12T05:02:34.902Z,7.28
2023-03-12T05:04:37.192Z,7.25
2023-03-12T05:06:38.815Z,7.20
2023-03-12T05:08:41.785Z,7.19
2023-03-12T05:10:43.304Z,7.16
2023-03-12T05:12:44.919Z,7.21
2023-03-12T05:14:46.459Z,7.17
2023-03-12T05:16:48.273Z,7.15
2023-03-12T05:18:50.008Z,7.08
2023-03-12T05:20:58.776Z,7.07
2023-03-12T05:23:00.367Z,7.08
2023-03-12T05:25:03.952Z,7.13
2023-03-12T05:27:06.758Z,7.31
2023-03-12T05:29:08.574Z,7.30
2023-03-12T05:31:11.354Z,7.30
2023-03-12T05:33:13.043Z,7.25
2023-03-12T05:35:14.580Z,7.22
2023-03-12T05:37:16.191Z,7.20
2023-03-12T05:39:17.793Z,7.17
2023-03-12T05:41:23.117Z,7.21
2023-03-12T05:43:24.864Z,7.18
2023-03-12T05:45:26.589Z,7.10
2023-03-12T05:47:28.294Z,7.11
2023-03-12T05:49:30.668Z,7.10
2023-03-12T05:51:32.403Z,7.05
2023-03-12T05:53:33.982Z,7.03
2023-03-12T05:55:35.767Z,7.02
2023-03-12T05:57:41.722Z,6.97
2023-03-12T05:59:43.340Z,6.94
2023-03-12T06:01:44.924Z,6.95
2023-03-12T06:03:46.847Z,6.94
2023-03-12T06:05:48.468Z,6.91
2023-03-12T06:07:50.441Z,6.94
2023-03-12T06:09:52.012Z,7.00
2023-03-12T06:11:53.599Z,7.05
2023-03-12T06:13:56.976Z,7.09
2023-03-12T06:16:02.719Z,7.13
2023-03-12T06:18:04.566Z,7.15
2023-03-12T06:20:07.784Z,7.17
2023-03-12T06:22:09.501Z,7.21
2023-03-12T06:24:11.028Z,7.24
2023-03-12T06:26:13.883Z,7.25
2023-03-12T06:28:15.484Z,7.26
2023-03-12T06:30:18.702Z,7.28
2023-03-12T06:32:20.309Z,7.28
2023-03-12T06:34:21.948Z,7.24
2023-03-12T06:36:23.518Z,7.20
2023-03-12T06:38:25.697Z,7.24
2023-03-12T06:40:27.267Z,7.25
2023-03-12T06:42:28.779Z,7.27
2023-03-12T06:44:30.396Z,7.30
2023-03-12T06:46:33.498Z,7.31
2023-03-12T06:48:35.920Z,7.32
2023-03-12T06:50:37.595Z,7.33
2023-03-12T06:52:39.196Z,7.40
2023-03-12T06:54:41.033Z,7.44
2023-03-12T06:56:42.646Z,7.43
2023-03-12T06:58:44.698Z,7.42
2023-03-12T07:00:46.391Z,7.46
2023-03-12T07:02:49.611Z,7.48
2023-03-12T07:04:51.211Z,7.55
2023-03-12T07:06:52.822Z,7.55
2023-03-12T07:08:54.395Z,7.51
2023-03-12T07:10:56.128Z,7.54
2023-03-12T07:12:57.663Z,7.52
2023-03-12T07:14:59.236Z,7.48
2023-03-12T07:17:00.873Z,7.44
2023-03-12T07:19:03.916Z,7.43
2023-03-12T07:21:05.829Z,7.39
2023-03-12T07:23:07.674Z,7.33
2023-03-12T07:25:09.705Z,7.31
2023-03-12T07:27:11.286Z,7.32
2023-03-12T07:29:12.984Z,7.36
2023-03-12T07:31:15.123Z,7.35
2023-03-12T07:33:18.507Z,7.39
2023-03-12T07:35:21.628Z,7.43
2023-03-12T07:37:23.737Z,7.49
2023-03-12T07:39:25.687Z,7.51
2023-03-12T07:41:28.338Z,7.51
2023-03-12T07:43:30.007Z,7.48
2023-03-12T07:45:31.781Z,7.52
2023-03-12T07:47:33.691Z,7.49
2023-03-12T07:49:35.568Z,7.52
2023-03-12T07:51:38.589Z,7.51
2023-03-12T07:53:40.255Z,7.50
2023-03-12T07:55:44.489Z,7.50
2023-03-12T07:57:46.112Z,7.49
2023-03-12T07:59:48.341Z,7.52
2023-03-12T08:01:50.104Z,7.53
2023-03-12T08:03:51.728Z,7.57
2023-03-12T08:05:58.086Z,7.61
2023-03-12T08:08:01.121Z,7.63
2023-03-12T08:10:05.262Z,7.56
2023-03-12T08:12:07.516Z,7.53
2023-03-12T08:14:09.430Z,7.56
2023-03-12T08:16:11.036Z,7.57
2023-03-12T08:18:12.762Z,7.52
2023-03-12T08:20:14.802Z,7.56
2023-03-12T08:22:16.375Z,7.55
2023-03-12T08:24:20.013Z,7.62
2023-03-12T08:26:21.615Z,7.68
2023-03-12T08:28:24.317Z,7.63
2023-03-12T08:30:27.769Z,7.63
2023-03-12T08:32:31.632Z,7.70
2023-03-12T08:34:33.347Z,7.66
2023-03-12T08:36:34.971Z,7.68
2023-03-12T08:38:36.818Z,7.73
2023-03-12T08:40:39.785Z,7.62
2023-03-12T08:42:42.297Z,7.65
2023-03-12T08:44:44.213Z,7.51
2023-03-12T08:46:45.775Z,7.51
2023-03-12T08:48:47.901Z,7.62
2023-03-12T08:50:49.483Z,7.67
2023-03-12T08:52:51.038Z,7.56
2023-03-12T08:54:52.721Z,7.61
2023-03-12T08:56:55.620Z,7.61
2023-03-12T08:58:58.353Z,7.65
2023-03-12T09:01:00.032Z,7.65
2023-03-12T09:03:01.665Z,7.75
2023-03-12T09:05:03.689Z,7.79
2023-03-12T09:07:06.121Z,7.79
2023-03-12T09:09:08.323Z,7.88
2023-03-12T09:11:10.986Z,7.93
2023-03-12T09:13:13.960Z,7.91
2023-03-12T09:15:15.838Z,7.83
2023-03-12T09:17:17.785Z,7.92
2023-03-12T09:19:19.369Z,7.88
2023-03-12T09:21:21.733Z,7.96
2023-03-12T09:23:23.914Z,7.98
2023-03-12T09:25:25.643Z,7.87
2023-03-12T09:27:27.213Z,7.86
2023-03-12T09:29:30.550Z,7.92
2023-03-12T09:31:32.837Z,7.83
2023-03-12T09:33:34.348Z,7.76
2023-03-12T09:35:36.279Z,7.68
2023-03-12T09:37:38.687Z,7.84
2023-03-12T09:39:40.280Z,7.92
2023-03-12T09:41:44.407Z,7.98
2023-03-12T09:43:51.709Z,7.90
2023-03-12T09:45:56.735Z,7.95
2023-03-12T09:48:00.894Z,7.84
2023-03-12T09:50:16.798Z,8.02
2023-03-12T09:52:23.993Z,8.07
2023-03-12T09:54:33.114Z,8.08
2023-03-12T09:56:35.107Z,8.27
2023-03-12T09:58:38.265Z,8.41
2023-03-12T10:00:40.138Z,8.25
2023-03-12T10:03:16.852Z,8.25
2023-03-12T10:05:24.342Z,8.24
2023-03-12T10:07:32.363Z,8.26
2023-03-12T10:10:01.682Z,8.17
2023-03-12T10:12:14.755Z,8.17
2023-03-12T10:14:28.251Z,8.24
2023-03-12T10:16:50.435Z,8.33
2023-03-12T10:19:11.298Z,8.16
2023-03-12T10:21:20.040Z,8.23
2023-03-12T10:23:42.884Z,8.24
2023-03-12T10:25:50.401Z,8.17
2023-03-12T10:27:52.047Z,8.18
2023-03-12T10:29:55.095Z,8.27
2023-03-12T10:32:00.713Z,8.24
2023-03-12T10:34:12.720Z,8.26
2023-03-12T10:36:17.937Z,8.28
2023-03-12T10:38:26.756Z,8.44
2023-03-12T10:40:30.714Z,8.55
2023-03-12T10:42:32.748Z,8.70
2023-03-12T10:44:34.876Z,8.76
2023-03-12T10:46:51.124Z,8.80
2023-03-12T10:49:29.589Z,8.92
2023-03-12T10:51:31.126Z,8.90
2023-03-12T10:53:34.766Z,8.93
2023-03-12T10:55:36.384Z,8.92
2023-03-12T10:57:41.081Z,8.87
2023-03-12T10:59:44.340Z,8.97
2023-03-12T11:01:52.610Z,8.99
2023-03-12T11:04:14.201Z,8.97
2023-03-12T11:06:23.337Z,8.98
2023-03-12T11:08:27.475Z,9.00
2023-03-12T11:10:42.313Z,8.99
2023-03-12T11:12:53.866Z,8.97
2023-03-12T11:14:55.462Z,9.04
2023-03-12T11:16:57.723Z,9.08
2023-03-12T11:19:01.041Z,9.06
2023-03-12T11:21:16.201Z,9.07
2023-03-12T11:23:22.580Z,9.19
2023-03-12T11:25:25.895Z,9.17
2023-03-12T11:27:40.150Z,9.24
2023-03-12T11:29:47.948Z,9.22
2023-03-12T11:31:58.812Z,9.16
2023-03-12T11:34:05.932Z,9.22
2023-03-12T11:36:22.860Z,9.29
2023-03-12T11:38:34.481Z,9.34
2023-03-12T11:40:58.713Z,9.49
2023-03-12T11:43:15.864Z,9.72
2023-03-12T11:45:26.948Z,9.89
2023-03-12T11:47:44.953Z,10.03
2023-03-12T11:50:15.181Z,10.16
2023-03-12T11:52:27.339Z,10.24
2023-03-12T11:55:08.249Z,10.19
2023-03-12T11:57:19.043Z,10.15
2023-03-12T11:59:32.772Z,10.23
2023-03-12T12:01:56.473Z,10.39
2023-03-12T12:04:27.895Z,10.64
2023-03-12T12:06:38.384Z,11.00
2023-03-12T12:08:52.829Z,11.17
2023-03-12T12:11:05.916Z,11.46
2023-03-12T12:13:15.844Z,11.72
2023-03-12T12:15:26.879Z,12.00
2023-03-12T12:17:44.211Z,12.44
2023-03-12T12:20:01.142Z,12.78
2023-03-12T12:22:24.413Z,13.10
2023-03-12T12:24:37.759Z,13.65
2023-03-12T12:26:47.756Z,14.23
2023-03-12T12:29:17.287Z,14.70
2023-03-12T12:31:29.153Z,14.59
2023-03-12T12:33:45.280Z,14.38
2023-03-12T12:35:47.071Z,14.20
2023-03-12T12:37:54.165Z,14.35
2023-03-12T12:40:05.240Z,14.32
2023-03-12T12:42:15.058Z,14.14
2023-03-12T12:44:21.180Z,14.08
2023-03-12T12:46:25.370Z,14.00
2023-03-12T12:48:32.868Z,14.01
2023-03-12T12:50:38.446Z,13.83
2023-03-12T12:52:41.008Z,13.68
2023-03-12T12:54:51.744Z,13.53
2023-03-12T12:57:00.550Z,13.34
2023-03-12T12:59:26.542Z,13.35
2023-03-12T13:01:29.353Z,13.29
2023-03-12T13:03:31.456Z,13.25
2023-03-12T13:05:46.006Z,13.20
2023-03-12T13:07:48.718Z,12.99
2023-03-12T13:09:52.418Z,12.92
2023-03-12T13:11:55.402Z,12.92
2023-03-12T13:14:21.219Z,13.02
2023-03-12T13:16:32.913Z,13.06
2023-03-12T13:18:36.820Z,13.03
2023-03-12T13:20:47.297Z,13.05
2023-03-12T13:23:03.323Z,13.10
2023-03-12T13:25:23.051Z,13.14
2023-03-12T13:27:28.819Z,13.15
2023-03-12T13:29:40.330Z,13.17
2023-03-12T13:31:42.797Z,13.21
2023-03-12T13:33:45.855Z,13.20
2023-03-12T13:36:20.196Z,13.23
2023-03-12T13:38:36.092Z,13.21
2023-03-12T13:40:54.929Z,13.28
2023-03-12T13:43:05.372Z,13.38
2023-03-12T13:45:40.593Z,13.49
2023-03-12T13:47:43.170Z,13.57
2023-03-12T13:49:52.307Z,13.69
2023-03-12T13:51:57.859Z,13.73
2023-03-12T13:54:01.639Z,13.81
2023-03-12T13:56:07.237Z,13.79
2023-03-12T13:58:13.638Z,13.85
2023-03-12T14:00:19.894Z,13.93
2023-03-12T14:02:27.038Z,13.90
2023-03-12T14:04:40.101Z,13.99
2023-03-12T14:06:58.065Z,14.02
2023-03-12T14:09:24.484Z,14.11
2023-03-12T14:11:45.036Z,14.12
2023-03-12T14:14:21.976Z,14.18
2023-03-12T14:16:33.613Z,14.23
2023-03-12T14:18:38.290Z,14.28
2023-03-12T14:20:40.555Z,14.32
2023-03-12T14:22:45.842Z,14.36
2023-03-12T14:24:51.039Z,14.34
2023-03-12T14:26:55.310Z,14.39
2023-03-12T14:29:00.557Z,14.48
2023-03-12T14:31:04.890Z,14.49
2023-03-12T14:33:09.970Z,14.53
2023-03-12T14:35:19.764Z,14.57
2023-03-12T14:37:25.329Z,14.60
2023-03-12T14:39:31.922Z,14.58
2023-03-12T14:41:39.621Z,14.59
2023-03-12T14:43:43.156Z,14.58
2023-03-12T14:45:44.735Z,14.58
2023-03-12T14:47:48.550Z,14.64
2023-03-12T14:49:50.883Z,14.57
2023-03-12T14:51:54.596Z,14.57
2023-03-12T14:53:56.746Z,14.60
2023-03-12T14:56:03.095Z,14.56
2023-03-12T14:58:06.333Z,14.58
2023-03-12T15:00:15.274Z,14.50
2023-03-12T15:02:19.422Z,14.53
2023-03-12T15:04:24.327Z,14.51
2023-03-12T15:06:29.926Z,14.49
2023-03-12T15:08:39.611Z,14.52
2023-03-12T15:10:48.320Z,14.57
2023-03-12T15:12:51.271Z,14.57
2023-03-12T15:14:55.760Z,14.58
2023-03-12T15:17:00.057Z,14.53
2023-03-12T15:19:03.025Z,14.50
2023-03-12T15:21:06.425Z,14.54
2023-03-12T15:23:11.756Z,14.53
2023-03-12T15:25:27.061Z,14.55
2023-03-12T15:27:33.312Z,14.56
2023-03-12T15:29:41.473Z,14.52
2023-03-12T15:31:44.841Z,14.56
2023-03-12T15:34:00.227Z,14.48
2023-03-12T15:36:04.932Z,14.48
2023-03-12T15:38:14.046Z,14.50
2023-03-12T15:40:21.672Z,14.49
2023-03-12T15:42:26.560Z,14.52
2023-03-12T15:44:34.195Z,14.48
2023-03-12T15:46:35.922Z,14.43
2023-03-12T15:48:40.371Z,14.40
2023-03-12T15:50:45.151Z,14.39
2023-03-12T15:53:02.746Z,14.43
2023-03-12T15:55:21.994Z,14.42
2023-03-12T15:57:25.828Z,14.42
2023-03-12T15:59:28.449Z,14.44
2023-03-12T16:01:30.352Z,14.32
2023-03-12T16:03:31.959Z,14.29
2023-03-12T16:05:36.160Z,14.27
2023-03-12T16:07:38.363Z,14.29
2023-03-12T16:09:39.959Z,14.30
2023-03-12T16:11:41.869Z,14.24
2023-03-12T16:13:45.690Z,14.27
2023-03-12T16:15:48.261Z,14.27
2023-03-12T16:17:49.926Z,14.31
2023-03-12T16:19:51.551Z,14.33
2023-03-12T16:21:53.212Z,14.33
2023-03-12T16:23:54.804Z,14.35
2023-03-12T16:25:58.358Z,14.35
2023-03-12T16:28:03.178Z,14.39
2023-03-12T16:30:14.859Z,14.33
2023-03-12T16:32:17.420Z,14.30
2023-03-12T16:34:19.082Z,14.37
2023-03-12T16:36:20.775Z,14.35
2023-03-12T16:38:22.577Z,14.31
2023-03-12T16:40:33.326Z,14.40
2023-03-12T16:42:36.289Z,14.41
2023-03-12T16:44:38.046Z,14.35
2023-03-12T16:46:41.143Z,14.35
2023-03-12T16:48:42.819Z,14.36
2023-03-12T16:50:49.536Z,14.39
2023-03-12T16:52:51.866Z,14.38
2023-03-12T16:54:53.927Z,14.35
2023-03-12T16:56:55.852Z,14.42
2023-03-12T16:59:06.744Z,14.41
2023-03-12T17:01:12.274Z,14.35
2023-03-12T17:03:22.003Z,14.35
2023-03-12T17:05:23.930Z,14.31
2023-03-12T17:07:25.702Z,14.30
2023-03-12T17:09:27.245Z,14.31
2023-03-12T17:11:31.637Z,14.34
2023-03-12T17:13:36.593Z,14.37
2023-03-12T17:15:39.351Z,14.35
2023-03-12T17:17:41.026Z,14.37
2023-03-12T17:19:43.944Z,14.35
2023-03-12T17:21:46.584Z,14.35
2023-03-12T17:23:49.899Z,14.35
2023-03-12T17:25:51.739Z,14.35
2023-03-12T17:27:53.827Z,14.38
2023-03-12T17:29:55.448Z,14.35
2023-03-12T17:31:57.011Z,14.32
2023-03-12T17:33:58.643Z,14.31
2023-03-12T17:36:03.805Z,14.34
2023-03-12T17:38:05.807Z,14.37
2023-03-12T17:40:09.013Z,14.36
2023-03-12T17:42:10.594Z,14.35
2023-03-12T17:44:12.235Z,14.33
2023-03-12T17:46:13.919Z,14.31
2023-03-12T17:48:16.189Z,14.33
2023-03-12T17:50:18.069Z,14.32
2023-03-12T17:52:21.081Z,14.34
2023-03-12T17:54:22.770Z,14.33
2023-03-12T17:56:24.545Z,14.36
2023-03-12T17:58:26.223Z,14.32
2023-03-12T18:00:27.827Z,14.27
2023-03-12T18:02:29.405Z,14.29
2023-03-12T18:04:31.386Z,14.28
2023-03-12T18:06:32.997Z,14.22
2023-03-12T18:08:36.048Z,14.27
2023-03-12T18:10:38.053Z,14.26
2023-03-12T18:12:40.000Z,14.26
2023-03-12T18:14:41.620Z,14.29
2023-03-12T18:16:43.332Z,14.29
2023-03-12T18:18:44.972Z,14.32
2023-03-12T18:20:48.123Z,14.27
2023-03-12T18:22:49.786Z,14.28
2023-03-12T18:24:52.691Z,14.25
2023-03-12T18:26:54.296Z,14.21
2023-03-12T18:28:56.152Z,14.22
2023-03-12T18:30:57.770Z,14.24
2023-03-12T18:32:59.500Z,14.24
2023-03-12T18:35:01.217Z,14.19
2023-03-12T18:37:02.852Z,14.14
2023-03-12T18:39:04.698Z,14.09
2023-03-12T18:41:10.607Z,14.12
2023-03-12T18:43:12.382Z,14.10
2023-03-12T18:45:17.278Z,14.11
2023-03-12T18:47:19.358Z,14.06
2023-03-12T18:49:21.296Z,14.09
2023-03-12T18:51:23.007Z,14.10
2023-03-12T18:53:24.849Z,14.06
2023-03-12T18:55:26.482Z,14.08
2023-03-12T18:57:29.567Z,14.02
2023-03-12T18:59:32.421Z,14.04
2023-03-12T19:01:34.133Z,14.02
2023-03-12T19:03:35.713Z,14.03
2023-03-12T19:05:37.558Z,13.99
2023-03-12T19:07:39.688Z,14.00
2023-03-12T19:09:41.250Z,13.94
2023-03-12T19:11:42.914Z,13.96
2023-03-12T19:13:49.425Z,13.96
2023-03-12T19:15:57.371Z,13.98
2023-03-12T19:17:59.114Z,13.95
2023-03-12T19:20:00.696Z,13.99
2023-03-12T19:22:02.244Z,13.99
2023-03-12T19:24:04.485Z,13.96
2023-03-12T19:26:06.425Z,13.98
2023-03-12T19:28:08.058Z,14.01
2023-03-12T19:30:12.599Z,14.00
2023-03-12T19:32:14.132Z,13.98
2023-03-12T19:34:15.745Z,13.96
2023-03-12T19:36:17.455Z,14.02
2023-03-12T19:38:19.080Z,14.04
2023-03-12T19:40:20.685Z,14.03
2023-03-12T19:42:22.778Z,14.01
2023-03-12T19:44:24.474Z,14.02
2023-03-12T19:46:27.446Z,14.06
2023-03-12T19:48:29.060Z,14.06
2023-03-12T19:50:30.569Z,14.04
2023-03-12T19:52:32.244Z,14.05
2023-03-12T19:54:34.037Z,14.06
2023-03-12T19:56:35.619Z,14.10
2023-03-12T19:58:37.207Z,14.11
2023-03-12T20:00:38.798Z,14.07
2023-03-12T20:02:41.948Z,14.10
2023-03-12T20:04:43.543Z,14.09
2023-03-12T20:06:45.303Z,14.10
2023-03-12T20:08:46.874Z,14.12
2023-03-12T20:10:48.830Z,14.09
2023-03-12T20:12:50.389Z,14.08
2023-03-12T20:14:52.242Z,14.11
2023-03-12T20:16:53.857Z,14.18
2023-03-12T20:18:57.385Z,14.25
2023-03-12T20:20:58.999Z,14.18
2023-03-12T20:23:00.662Z,14.18
2023-03-12T20:25:02.716Z,14.17
2023-03-12T20:27:04.642Z,14.15
2023-03-12T20:29:06.753Z,14.14
2023-03-12T20:31:09.132Z,14.14
2023-03-12T20:33:10.720Z,14.13
2023-03-12T20:35:13.681Z,14.13
2023-03-12T20:37:15.249Z,14.11
2023-03-12T20:39:16.806Z,14.10
2023-03-12T20:41:18.383Z,14.11
2023-03-12T20:43:19.969Z,14.11
2023-03-12T20:45:21.508Z,14.11
2023-03-12T20:47:23.362Z,14.07
2023-03-12T20:49:25.294Z,14.08
2023-03-12T20:51:28.216Z,14.08
2023-03-12T20:53:29.875Z,14.08
2023-03-12T20:55:31.691Z,14.09
2023-03-12T20:57:34.194Z,14.06
2023-03-12T20:59:36.025Z,14.08
2023-03-12T21:01:37.949Z,14.08
2023-03-12T21:03:39.546Z,14.06
2023-03-12T21:05:41.652Z,14.04
2023-03-12T21:07:44.702Z,14.05
2023-03-12T21:09:46.261Z,14.03
2023-03-12T21:11:47.901Z,13.99
2023-03-12T21:13:49.491Z,13.98
2023-03-12T21:15:51.043Z,13.96
2023-03-12T21:17:52.602Z,13.97
2023-03-12T21:19:54.381Z,13.91
2023-03-12T21:21:56.121Z,13.87
2023-03-12T21:24:00.340Z,13.84
2023-03-12T21:26:04.219Z,13.80
2023-03-12T21:28:07.330Z,13.71
2023-03-12T21:30:10.326Z,13.71
2023-03-12T21:32:11.934Z,13.76
2023-03-12T21:34:13.622Z,13.77
2023-03-12T21:36:15.418Z,13.75
2023-03-12T21:38:17.369Z,13.69
2023-03-12T21:40:20.504Z,13.69
2023-03-12T21:42:22.138Z,13.64
2023-03-12T21:44:24.226Z,13.63
2023-03-12T21:46:25.949Z,13.58
2023-03-12T21:48:27.521Z,13.53
2023-03-12T21:50:29.149Z,13.50
2023-03-12T21:52:30.708Z,13.51
2023-03-12T21:54:32.993Z,13.53
2023-03-12T21:56:36.105Z,13.55
2023-03-12T21:58:37.753Z,13.52
2023-03-12T22:00:39.333Z,13.57
2023-03-12T22:02:41.282Z,13.57
2023-03-12T22:04:42.869Z,13.57
2023-03-12T22:06:44.479Z,13.55
2023-03-12T22:08:47.109Z,13.54
2023-03-12T22:10:49.049Z,13.57
2023-03-12T22:12:51.946Z,13.57
2023-03-12T22:14:53.835Z,13.54
2023-03-12T22:16:55.377Z,13.53
2023-03-12T22:18:57.070Z,13.55
2023-03-12T22:21:00.276Z,13.51
2023-03-12T22:23:01.851Z,13.46
2023-03-12T22:25:08.624Z,13.47
2023-03-12T22:27:10.219Z,13.45
2023-03-12T22:29:13.289Z,13.49
2023-03-12T22:31:14.985Z,13.46
2023-03-12T22:33:16.655Z,13.41
2023-03-12T22:35:18.287Z,13.46
2023-03-12T22:37:19.935Z,13.42
2023-03-12T22:39:21.540Z,13.37
2023-03-12T22:41:25.454Z,13.37
2023-03-12T22:43:27.281Z,13.37
2023-03-12T22:45:30.447Z,13.38
2023-03-12T22:47:32.161Z,13.34
2023-03-12T22:49:33.817Z,13.35
2023-03-12T22:51:35.498Z,13.36
2023-03-12T22:53:37.255Z,13.34
2023-03-12T22:55:38.819Z,13.35
2023-03-12T22:57:40.434Z,13.37
2023-03-12T22:59:41.962Z,13.35
2023-03-12T23:01:44.919Z,13.35
2023-03-12T23:03:47.666Z,13.33
2023-03-12T23:05:49.267Z,13.31
2023-03-12T23:07:50.897Z,13.30
2023-03-12T23:09:53.421Z,13.31
2023-03-12T23:11:55.015Z,13.31
2023-03-12T23:13:56.595Z,13.33
2023-03-12T23:16:01.682Z,13.39
2023-03-12T23:18:04.651Z,13.33
2023-03-12T23:20:07.197Z,13.33
2023-03-12T23:22:09.535Z,13.30
2023-03-12T23:24:11.128Z,13.34
2023-03-12T23:26:14.664Z,13.34
2023-03-12T23:28:16.700Z,13.41
2023-03-12T23:30:18.276Z,13.31
2023-03-12T23:32:19.966Z,13.33
2023-03-12T23:34:23.012Z,13.34
2023-03-12T23:36:25.604Z,13.35
2023-03-12T23:38:28.646Z,13.37
2023-03-12T23:40:30.260Z,13.47
2023-03-12T23:42:32.253Z,13.34
2023-03-12T23:44:33.856Z,13.29
2023-03-12T23:46:35.676Z,13.31
2023-03-12T23:48:38.366Z,13.32
2023-03-12T23:50:41.363Z,13.29
2023-03-12T23:52:42.959Z,13.30
2023-03-12T23:54:44.581Z,13.29
2023-03-12T23:56:46.143Z,13.36
2023-03-12T23:58:49.397Z,13.36
